sensor_id;sensor_type;location;lat;lon;timestamp;pressure;altitude;pressure_sealevel;temperature;humidity
56334;BME280;42240;53.626;55.886;2023-02-22T00:00:25;76477.72;;;-145.10;100.00
56334;BME280;42240;53.626;55.886;2023-02-22T00:02:14;76475.72;;;-145.10;100.00
56334;BME280;42240;53.626;55.886;2023-02-22T00:03:58;76479.69;;;-145.10;100.00
56334;BME280;42240;53.626;55.886;2023-02-22T00:05:32;76493.53;;;-145.10;100.00
56334;BME280;42240;53.626;55.886;2023-02-22T00:07:06;76493.53;;;-145.10;100.00
56334;BME280;42240;53.626;55.886;2023-02-22T00:08:39;76487.59;;;-145.10;100.00
56334;BME280;42240;53.626;55.886;2023-02-22T00:10:13;76483.63;;;-145.10;100.00
56334;BME280;42240;53.626;55.886;2023-02-22T00:11:47;76495.50;;;-145.10;100.00
56334;BME280;42240;53.626;55.886;2023-02-22T00:13:20;76481.66;;;-145.10;100.00
56334;BME280;42240;53.626;55.886;2023-02-22T00:14:54;76592.41;;;-145.10;100.00
56334;BME280;42240;53.626;55.886;2023-02-22T00:16:27;76473.75;;;-145.10;100.00
56334;BME280;42240;53.626;55.886;2023-02-22T00:18:01;76453.97;;;-145.10;100.00
56334;BME280;42240;53.626;55.886;2023-02-22T00:19:38;76469.78;;;-145.10;100.00
56334;BME280;42240;53.626;55.886;2023-02-22T00:21:16;76453.97;;;-145.10;100.00
56334;BME280;42240;53.626;55.886;2023-02-22T00:22:50;76461.88;;;-145.10;100.00
56334;BME280;42240;53.626;55.886;2023-02-22T00:24:25;76461.88;;;-145.10;100.00
56334;BME280;42240;53.626;55.886;2023-02-22T00:25:59;76475.72;;;-145.10;100.00
56334;BME280;42240;53.626;55.886;2023-02-22T00:27:33;76469.78;;;-145.10;100.00
56334;BME280;42240;53.626;55.886;2023-02-22T00:29:06;76473.75;;;-145.10;100.00
56334;BME280;42240;53.626;55.886;2023-02-22T00:30:40;76507.38;;;-145.10;100.00
56334;BME280;42240;53.626;55.886;2023-02-22T00:32:16;76457.94;;;-145.10;100.00
56334;BME280;42240;53.626;55.886;2023-02-22T00:33:51;76465.84;;;-145.10;100.00
56334;BME280;42240;53.626;55.886;2023-02-22T00:35:26;76446.06;;;-145.10;100.00
56334;BME280;42240;53.626;55.886;2023-02-22T00:36:59;76453.97;;;-145.10;100.00
56334;BME280;42240;53.626;55.886;2023-02-22T00:38:35;76525.16;;;-145.10;100.00
56334;BME280;42240;53.626;55.886;2023-02-22T00:40:10;76471.78;;;-145.10;100.00
56334;BME280;42240;53.626;55.886;2023-02-22T00:41:43;76465.84;;;-145.10;100.00
56334;BME280;42240;53.626;55.886;2023-02-22T00:43:16;76469.78;;;-145.10;100.00
56334;BME280;42240;53.626;55.886;2023-02-22T00:44:52;76461.88;;;-145.10;100.00
56334;BME280;42240;53.626;55.886;2023-02-22T00:46:25;76481.66;;;-145.10;100.00
56334;BME280;42240;53.626;55.886;2023-02-22T00:48:02;76469.78;;;-145.10;100.00
56334;BME280;42240;53.626;55.886;2023-02-22T00:49:36;76463.88;;;-145.10;100.00
56334;BME280;42240;53.626;55.886;2023-02-22T00:51:09;76479.69;;;-145.10;100.00
56334;BME280;42240;53.626;55.886;2023-02-22T00:52:43;76469.78;;;-145.10;100.00
56334;BME280;42240;53.626;55.886;2023-02-22T00:54:16;76457.94;;;-145.10;100.00
56334;BME280;42240;53.626;55.886;2023-02-22T00:55:52;76446.06;;;-145.10;100.00
56334;BME280;42240;53.626;55.886;2023-02-22T00:57:25;76459.91;;;-145.10;100.00
56334;BME280;42240;53.626;55.886;2023-02-22T00:58:58;76448.03;;;-145.10;100.00
56334;BME280;42240;53.626;55.886;2023-02-22T01:00:38;76533.06;;;-145.10;100.00
56334;BME280;42240;53.626;55.886;2023-02-22T01:02:11;76503.41;;;-145.10;100.00
56334;BME280;42240;53.626;55.886;2023-02-22T01:03:44;76446.06;;;-145.10;100.00
56334;BME280;42240;53.626;55.886;2023-02-22T01:05:19;76450.03;;;-145.10;100.00
56334;BME280;42240;53.626;55.886;2023-02-22T01:06:53;76430.25;;;-145.10;100.00
56334;BME280;42240;53.626;55.886;2023-02-22T01:08:31;76434.19;;;-145.10;100.00
56334;BME280;42240;53.626;55.886;2023-02-22T01:10:06;76426.28;;;-145.10;100.00
56334;BME280;42240;53.626;55.886;2023-02-22T01:11:41;76531.09;;;-145.10;100.00
56334;BME280;42240;53.626;55.886;2023-02-22T01:13:14;76402.56;;;-145.10;100.00
56334;BME280;42240;53.626;55.886;2023-02-22T01:14:50;76398.63;;;-145.10;100.00
56334;BME280;42240;53.626;55.886;2023-02-22T01:16:23;76416.41;;;-145.10;100.00
56334;BME280;42240;53.626;55.886;2023-02-22T01:17:57;76394.66;;;-145.10;100.00
56334;BME280;42240;53.626;55.886;2023-02-22T01:19:31;76406.53;;;-145.10;100.00
56334;BME280;42240;53.626;55.886;2023-02-22T01:21:05;76418.38;;;-145.10;100.00
56334;BME280;42240;53.626;55.886;2023-02-22T01:22:41;76469.78;;;-145.10;100.00
56334;BME280;42240;53.626;55.886;2023-02-22T01:24:15;76396.63;;;-145.10;100.00
56334;BME280;42240;53.626;55.886;2023-02-22T01:25:49;76426.28;;;-145.10;100.00
56334;BME280;42240;53.626;55.886;2023-02-22T01:27:22;76414.44;;;-145.10;100.00
56334;BME280;42240;53.626;55.886;2023-02-22T01:28:55;76426.28;;;-145.10;100.00
56334;BME280;42240;53.626;55.886;2023-02-22T01:30:33;76422.34;;;-145.10;100.00
56334;BME280;42240;53.626;55.886;2023-02-22T01:32:06;76426.28;;;-145.10;100.00
56334;BME280;42240;53.626;55.886;2023-02-22T01:33:40;76422.34;;;-145.10;100.00
56334;BME280;42240;53.626;55.886;2023-02-22T01:35:15;76410.47;;;-145.10;100.00
56334;BME280;42240;53.626;55.886;2023-02-22T01:36:50;76424.31;;;-145.10;100.00
56334;BME280;42240;53.626;55.886;2023-02-22T01:38:23;76426.28;;;-145.10;100.00
56334;BME280;42240;53.626;55.886;2023-02-22T01:39:56;76422.34;;;-145.10;100.00
56334;BME280;42240;53.626;55.886;2023-02-22T01:41:29;76434.19;;;-145.10;100.00
56334;BME280;42240;53.626;55.886;2023-02-22T01:47:04;76440.13;;;-145.10;100.00
56334;BME280;42240;53.626;55.886;2023-02-22T01:48:43;76418.38;;;-145.10;100.00
56334;BME280;42240;53.626;55.886;2023-02-22T01:50:16;76434.19;;;-145.10;100.00
56334;BME280;42240;53.626;55.886;2023-02-22T01:51:54;76422.34;;;-145.10;100.00
56334;BME280;42240;53.626;55.886;2023-02-22T01:53:33;76402.56;;;-145.10;100.00
56334;BME280;42240;53.626;55.886;2023-02-22T01:55:07;76410.47;;;-145.10;100.00
56334;BME280;42240;53.626;55.886;2023-02-22T01:56:47;76400.59;;;-145.10;100.00
56334;BME280;42240;53.626;55.886;2023-02-22T01:58:24;76426.28;;;-145.10;100.00
56334;BME280;42240;53.626;55.886;2023-02-22T02:00:06;76424.31;;;-145.10;100.00
56334;BME280;42240;53.626;55.886;2023-02-22T02:01:47;76440.13;;;-145.10;100.00
56334;BME280;42240;53.626;55.886;2023-02-22T02:03:24;76428.28;;;-145.10;100.00
56334;BME280;42240;53.626;55.886;2023-02-22T02:04:59;76438.16;;;-145.10;100.00
56334;BME280;42240;53.626;55.886;2023-02-22T02:06:34;76497.47;;;-145.10;100.00
56334;BME280;42240;53.626;55.886;2023-02-22T02:08:58;76452.00;;;-145.10;100.00
56334;BME280;42240;53.626;55.886;2023-02-22T02:10:11;76461.88;;;-145.10;100.00
56334;BME280;42240;53.626;55.886;2023-02-22T02:11:46;76463.88;;;-145.10;100.00
56334;BME280;42240;53.626;55.886;2023-02-22T02:13:19;76467.81;;;-145.10;100.00
56334;BME280;42240;53.626;55.886;2023-02-22T02:14:52;76450.03;;;-145.10;100.00
56334;BME280;42240;53.626;55.886;2023-02-22T02:16:46;76442.13;;;-145.10;100.00
56334;BME280;42240;53.626;55.886;2023-02-22T02:18:21;76450.03;;;-145.10;100.00
56334;BME280;42240;53.626;55.886;2023-02-22T02:20:12;76440.13;;;-145.10;100.00
56334;BME280;42240;53.626;55.886;2023-02-22T02:22:27;76426.28;;;-145.10;100.00
56334;BME280;42240;53.626;55.886;2023-02-22T02:30:00;76436.19;;;-145.10;100.00
56334;BME280;42240;53.626;55.886;2023-02-22T02:34:04;76442.13;;;-145.10;100.00
56334;BME280;42240;53.626;55.886;2023-02-22T02:38:04;76422.34;;;-145.10;100.00
56334;BME280;42240;53.626;55.886;2023-02-22T02:39:49;76434.19;;;-145.10;100.00
56334;BME280;42240;53.626;55.886;2023-02-22T02:41:31;76442.13;;;-145.10;100.00
56334;BME280;42240;53.626;55.886;2023-02-22T02:43:25;76444.09;;;-145.10;100.00
56334;BME280;42240;53.626;55.886;2023-02-22T02:45:08;76450.03;;;-145.10;100.00
56334;BME280;42240;53.626;55.886;2023-02-22T02:46:50;76453.97;;;-145.10;100.00
56334;BME280;42240;53.626;55.886;2023-02-22T02:48:30;76436.19;;;-145.10;100.00
56334;BME280;42240;53.626;55.886;2023-02-22T02:50:17;76426.28;;;-145.10;100.00
56334;BME280;42240;53.626;55.886;2023-02-22T02:51:53;76434.19;;;-145.10;100.00
56334;BME280;42240;53.626;55.886;2023-02-22T02:53:33;76436.19;;;-145.10;100.00
56334;BME280;42240;53.626;55.886;2023-02-22T02:55:07;76426.28;;;-145.10;100.00
56334;BME280;42240;53.626;55.886;2023-02-22T02:56:46;76422.34;;;-145.10;100.00
56334;BME280;42240;53.626;55.886;2023-02-22T02:58:21;76406.53;;;-145.10;100.00
56334;BME280;42240;53.626;55.886;2023-02-22T02:59:57;76414.44;;;-145.10;100.00
56334;BME280;42240;53.626;55.886;2023-02-22T03:01:52;76390.69;;;-145.10;100.00
56334;BME280;42240;53.626;55.886;2023-02-22T03:03:57;76396.63;;;-145.10;100.00
56334;BME280;42240;53.626;55.886;2023-02-22T03:09:37;76390.69;;;-145.10;100.00
56334;BME280;42240;53.626;55.886;2023-02-22T03:11:15;76392.69;;;-145.10;100.00
56334;BME280;42240;53.626;55.886;2023-02-22T03:20:00;76382.78;;;-145.10;100.00
56334;BME280;42240;53.626;55.886;2023-02-22T03:22:04;76384.78;;;-145.10;100.00
56334;BME280;42240;53.626;55.886;2023-02-22T03:25:18;76438.16;;;-145.10;100.00
56334;BME280;42240;53.626;55.886;2023-02-22T03:27:03;76386.75;;;-145.10;100.00
56334;BME280;42240;53.626;55.886;2023-02-22T03:28:45;76388.72;;;-145.10;100.00
56334;BME280;42240;53.626;55.886;2023-02-22T03:30:32;76386.75;;;-145.10;100.00
56334;BME280;42240;53.626;55.886;2023-02-22T03:32:24;76404.53;;;-145.10;100.00
56334;BME280;42240;53.626;55.886;2023-02-22T03:34:05;76368.94;;;-145.10;100.00
56334;BME280;42240;53.626;55.886;2023-02-22T03:35:46;76438.16;;;-145.10;100.00
56334;BME280;42240;53.626;55.886;2023-02-22T03:37:23;76430.25;;;-145.10;100.00
56334;BME280;42240;53.626;55.886;2023-02-22T03:38:59;76382.78;;;-145.10;100.00
56334;BME280;42240;53.626;55.886;2023-02-22T03:40:36;76384.78;;;-145.10;100.00
56334;BME280;42240;53.626;55.886;2023-02-22T03:42:16;76394.66;;;-145.10;100.00
56334;BME280;42240;53.626;55.886;2023-02-22T03:44:01;76402.56;;;-145.10;100.00
56334;BME280;42240;53.626;55.886;2023-02-22T03:45:37;76390.69;;;-145.10;100.00
56334;BME280;42240;53.626;55.886;2023-02-22T03:47:17;76396.63;;;-145.10;100.00
56334;BME280;42240;53.626;55.886;2023-02-22T03:49:04;76386.75;;;-145.10;100.00
56334;BME280;42240;53.626;55.886;2023-02-22T03:50:43;76406.53;;;-145.10;100.00
56334;BME280;42240;53.626;55.886;2023-02-22T03:52:17;76406.53;;;-145.10;100.00
56334;BME280;42240;53.626;55.886;2023-02-22T03:53:50;76418.38;;;-145.10;100.00
56334;BME280;42240;53.626;55.886;2023-02-22T03:55:27;76414.44;;;-145.10;100.00
56334;BME280;42240;53.626;55.886;2023-02-22T03:57:09;76422.34;;;-145.10;100.00
56334;BME280;42240;53.626;55.886;2023-02-22T03:58:48;76392.69;;;-145.10;100.00
56334;BME280;42240;53.626;55.886;2023-02-22T04:00:25;76394.66;;;-145.10;100.00
56334;BME280;42240;53.626;55.886;2023-02-22T04:01:59;76402.56;;;-145.10;100.00
56334;BME280;42240;53.626;55.886;2023-02-22T04:03:32;76412.44;;;-145.10;100.00
56334;BME280;42240;53.626;55.886;2023-02-22T04:05:06;76511.31;;;-145.10;100.00
56334;BME280;42240;53.626;55.886;2023-02-22T04:06:39;76396.63;;;-145.10;100.00
56334;BME280;42240;53.626;55.886;2023-02-22T04:08:13;76477.72;;;-145.10;100.00
56334;BME280;42240;53.626;55.886;2023-02-22T04:09:46;76366.97;;;-145.10;100.00
56334;BME280;42240;53.626;55.886;2023-02-22T04:11:20;76376.88;;;-145.10;100.00
56334;BME280;42240;53.626;55.886;2023-02-22T04:12:53;76355.13;;;-145.10;100.00
56334;BME280;42240;53.626;55.886;2023-02-22T04:14:27;76343.25;;;-145.10;100.00
56334;BME280;42240;53.626;55.886;2023-02-22T04:16:02;76337.31;;;-145.10;100.00
56334;BME280;42240;53.626;55.886;2023-02-22T04:17:35;76347.19;;;-145.10;100.00
56334;BME280;42240;53.626;55.886;2023-02-22T04:19:09;76357.09;;;-145.10;100.00
56334;BME280;42240;53.626;55.886;2023-02-22T04:20:43;76353.13;;;-145.10;100.00
56334;BME280;42240;53.626;55.886;2023-02-22T04:22:24;76361.03;;;-145.10;100.00
56334;BME280;42240;53.626;55.886;2023-02-22T04:23:58;76349.19;;;-145.10;100.00
56334;BME280;42240;53.626;55.886;2023-02-22T04:25:31;76347.19;;;-145.10;100.00
56334;BME280;42240;53.626;55.886;2023-02-22T04:27:15;76341.28;;;-145.10;100.00
56334;BME280;42240;53.626;55.886;2023-02-22T04:28:48;76299.75;;;-145.10;100.00
56334;BME280;42240;53.626;55.886;2023-02-22T04:30:23;76260.22;;;-145.10;100.00
56334;BME280;42240;53.626;55.886;2023-02-22T04:31:57;76270.09;;;-145.10;100.00
56334;BME280;42240;53.626;55.886;2023-02-22T04:33:30;76264.16;;;-145.10;100.00
56334;BME280;42240;53.626;55.886;2023-02-22T04:35:04;76258.22;;;-145.10;100.00
56334;BME280;42240;53.626;55.886;2023-02-22T04:36:38;76242.41;;;-145.10;100.00
56334;BME280;42240;53.626;55.886;2023-02-22T04:38:14;76238.47;;;-145.10;100.00
56334;BME280;42240;53.626;55.886;2023-02-22T04:39:47;76256.25;;;-145.10;100.00
56334;BME280;42240;53.626;55.886;2023-02-22T04:41:21;76232.53;;;-145.10;100.00
56334;BME280;42240;53.626;55.886;2023-02-22T04:42:57;76244.38;;;-145.10;100.00
56334;BME280;42240;53.626;55.886;2023-02-22T04:44:32;76208.78;;;-145.10;100.00
56334;BME280;42240;53.626;55.886;2023-02-22T04:46:05;76189.03;;;-145.10;100.00
56334;BME280;42240;53.626;55.886;2023-02-22T04:47:38;76155.41;;;-145.10;100.00
56334;BME280;42240;53.626;55.886;2023-02-22T04:49:12;76163.31;;;-145.10;100.00
56334;BME280;42240;53.626;55.886;2023-02-22T04:50:46;76228.56;;;-145.10;100.00
56334;BME280;42240;53.626;55.886;2023-02-22T04:52:20;76153.44;;;-145.10;100.00
56334;BME280;42240;53.626;55.886;2023-02-22T04:53:53;76175.19;;;-145.10;100.00
56334;BME280;42240;53.626;55.886;2023-02-22T04:55:26;76149.47;;;-145.10;100.00
56334;BME280;42240;53.626;55.886;2023-02-22T04:56:59;76131.69;;;-145.10;100.00
56334;BME280;42240;53.626;55.886;2023-02-22T04:58:32;76125.75;;;-145.10;100.00
56334;BME280;42240;53.626;55.886;2023-02-22T05:00:06;76105.97;;;-145.10;100.00
56334;BME280;42240;53.626;55.886;2023-02-22T05:01:42;76082.25;;;-145.10;100.00
56334;BME280;42240;53.626;55.886;2023-02-22T05:03:15;76074.34;;;-145.10;100.00
56334;BME280;42240;53.626;55.886;2023-02-22T05:04:48;76068.41;;;-145.10;100.00
56334;BME280;42240;53.626;55.886;2023-02-22T05:06:22;76070.41;;;-145.10;100.00
56334;BME280;42240;53.626;55.886;2023-02-22T05:07:55;76068.41;;;-145.10;100.00
56334;BME280;42240;53.626;55.886;2023-02-22T05:09:28;76056.56;;;-145.10;100.00
56334;BME280;42240;53.626;55.886;2023-02-22T05:11:01;76062.50;;;-145.10;100.00
56334;BME280;42240;53.626;55.886;2023-02-22T05:12:34;76161.34;;;-145.10;100.00
56334;BME280;42240;53.626;55.886;2023-02-22T05:14:08;76078.31;;;-145.10;100.00
56334;BME280;42240;53.626;55.886;2023-02-22T05:15:41;76060.50;;;-145.10;100.00
56334;BME280;42240;53.626;55.886;2023-02-22T05:17:14;76050.63;;;-145.10;100.00
56334;BME280;42240;53.626;55.886;2023-02-22T05:18:47;76062.50;;;-145.10;100.00
56334;BME280;42240;53.626;55.886;2023-02-22T05:20:24;76030.84;;;-145.10;100.00
56334;BME280;42240;53.626;55.886;2023-02-22T05:21:59;76019.00;;;-145.10;100.00
56334;BME280;42240;53.626;55.886;2023-02-22T05:23:32;76026.91;;;-145.10;100.00
56334;BME280;42240;53.626;55.886;2023-02-22T05:25:05;76011.09;;;-145.10;100.00
56334;BME280;42240;53.626;55.886;2023-02-22T05:26:38;76005.16;;;-145.10;100.00
56334;BME280;42240;53.626;55.886;2023-02-22T05:28:13;75999.22;;;-145.10;100.00
56334;BME280;42240;53.626;55.886;2023-02-22T05:29:47;76030.84;;;-145.10;100.00
56334;BME280;42240;53.626;55.886;2023-02-22T05:31:20;76074.34;;;-145.10;100.00
56334;BME280;42240;53.626;55.886;2023-02-22T05:32:53;76001.19;;;-145.10;100.00
56334;BME280;42240;53.626;55.886;2023-02-22T05:34:27;76005.16;;;-145.10;100.00
56334;BME280;42240;53.626;55.886;2023-02-22T05:36:01;75999.22;;;-145.10;100.00
56334;BME280;42240;53.626;55.886;2023-02-22T05:37:34;75961.66;;;-145.10;100.00
56334;BME280;42240;53.626;55.886;2023-02-22T05:39:09;75951.78;;;-145.10;100.00
56334;BME280;42240;53.626;55.886;2023-02-22T05:40:42;75955.72;;;-145.10;100.00
56334;BME280;42240;53.626;55.886;2023-02-22T05:42:15;75955.72;;;-145.10;100.00
56334;BME280;42240;53.626;55.886;2023-02-22T05:43:48;75957.69;;;-145.10;100.00
56334;BME280;42240;53.626;55.886;2023-02-22T05:45:24;75983.41;;;-145.10;100.00
56334;BME280;42240;53.626;55.886;2023-02-22T05:46:57;75991.31;;;-145.10;100.00
56334;BME280;42240;53.626;55.886;2023-02-22T05:48:30;75971.53;;;-145.10;100.00
56334;BME280;42240;53.626;55.886;2023-02-22T05:50:04;75951.78;;;-145.10;100.00
56334;BME280;42240;53.626;55.886;2023-02-22T05:51:37;75955.72;;;-145.10;100.00
56334;BME280;42240;53.626;55.886;2023-02-22T05:53:10;75937.94;;;-145.10;100.00
56334;BME280;42240;53.626;55.886;2023-02-22T05:54:43;75967.59;;;-145.10;100.00
56334;BME280;42240;53.626;55.886;2023-02-22T05:56:34;75977.47;;;-145.10;100.00
56334;BME280;42240;53.626;55.886;2023-02-22T05:58:08;75898.38;;;-145.10;100.00
56334;BME280;42240;53.626;55.886;2023-02-22T05:59:41;75924.09;;;-145.10;100.00
56334;BME280;42240;53.626;55.886;2023-02-22T06:01:14;75933.97;;;-145.10;100.00
56334;BME280;42240;53.626;55.886;2023-02-22T06:03:14;75882.56;;;-145.10;100.00
56334;BME280;42240;53.626;55.886;2023-02-22T06:04:47;75904.31;;;-145.10;100.00
56334;BME280;42240;53.626;55.886;2023-02-22T06:06:20;75890.47;;;-145.10;100.00
56334;BME280;42240;53.626;55.886;2023-02-22T06:07:54;75864.78;;;-145.10;100.00
56334;BME280;42240;53.626;55.886;2023-02-22T06:09:28;75864.78;;;-145.10;100.00
56334;BME280;42240;53.626;55.886;2023-02-22T06:11:01;75860.81;;;-145.10;100.00
56334;BME280;42240;53.626;55.886;2023-02-22T06:12:33;75876.63;;;-145.10;100.00
56334;BME280;42240;53.626;55.886;2023-02-22T06:14:06;75892.47;;;-145.10;100.00
56334;BME280;42240;53.626;55.886;2023-02-22T06:15:40;75880.59;;;-145.10;100.00
56334;BME280;42240;53.626;55.886;2023-02-22T06:17:14;75872.69;;;-145.10;100.00
56334;BME280;42240;53.626;55.886;2023-02-22T06:18:48;75906.28;;;-145.10;100.00
56334;BME280;42240;53.626;55.886;2023-02-22T06:20:23;75848.97;;;-145.10;100.00
56334;BME280;42240;53.626;55.886;2023-02-22T06:21:57;75866.75;;;-145.10;100.00
56334;BME280;42240;53.626;55.886;2023-02-22T06:23:31;75868.72;;;-145.10;100.00
56334;BME280;42240;53.626;55.886;2023-02-22T06:25:06;75854.91;;;-145.10;100.00
56334;BME280;42240;53.626;55.886;2023-02-22T06:26:40;75856.88;;;-145.10;100.00
56334;BME280;42240;53.626;55.886;2023-02-22T06:28:13;75843.03;;;-145.10;100.00
56334;BME280;42240;53.626;55.886;2023-02-22T06:29:46;75862.81;;;-145.10;100.00
56334;BME280;42240;53.626;55.886;2023-02-22T06:31:19;75833.16;;;-145.10;100.00
56334;BME280;42240;53.626;55.886;2023-02-22T06:32:52;75825.25;;;-145.10;100.00
56334;BME280;42240;53.626;55.886;2023-02-22T06:34:25;75837.09;;;-145.10;100.00
56334;BME280;42240;53.626;55.886;2023-02-22T06:35:59;75805.47;;;-145.10;100.00
56334;BME280;42240;53.626;55.886;2023-02-22T06:37:32;75801.50;;;-145.10;100.00
56334;BME280;42240;53.626;55.886;2023-02-22T06:39:05;75777.78;;;-145.10;100.00
56334;BME280;42240;53.626;55.886;2023-02-22T06:40:38;75781.75;;;-145.10;100.00
56334;BME280;42240;53.626;55.886;2023-02-22T06:42:11;75809.41;;;-145.10;100.00
56334;BME280;42240;53.626;55.886;2023-02-22T06:43:46;75777.78;;;-145.10;100.00
56334;BME280;42240;53.626;55.886;2023-02-22T06:45:19;75821.28;;;-145.10;100.00
56334;BME280;42240;53.626;55.886;2023-02-22T06:46:52;75829.19;;;-145.10;100.00
56334;BME280;42240;53.626;55.886;2023-02-22T06:48:26;75799.53;;;-145.10;100.00
56334;BME280;42240;53.626;55.886;2023-02-22T06:49:59;75801.50;;;-145.10;100.00
56334;BME280;42240;53.626;55.886;2023-02-22T06:51:35;75783.72;;;-145.10;100.00
56334;BME280;42240;53.626;55.886;2023-02-22T06:53:09;75787.69;;;-145.10;100.00
56334;BME280;42240;53.626;55.886;2023-02-22T06:54:42;75785.69;;;-145.10;100.00
56334;BME280;42240;53.626;55.886;2023-02-22T06:56:15;75773.84;;;-145.10;100.00
56334;BME280;42240;53.626;55.886;2023-02-22T06:57:48;75769.88;;;-145.10;100.00
56334;BME280;42240;53.626;55.886;2023-02-22T06:59:22;75789.66;;;-145.10;100.00
56334;BME280;42240;53.626;55.886;2023-02-22T07:00:55;75787.69;;;-145.10;100.00
56334;BME280;42240;53.626;55.886;2023-02-22T07:02:28;75763.94;;;-145.10;100.00
56334;BME280;42240;53.626;55.886;2023-02-22T07:04:02;75811.41;;;-145.10;100.00
56334;BME280;42240;53.626;55.886;2023-02-22T07:05:35;75740.22;;;-145.10;100.00
56334;BME280;42240;53.626;55.886;2023-02-22T07:07:08;75767.91;;;-145.10;100.00
56334;BME280;42240;53.626;55.886;2023-02-22T07:08:41;75722.44;;;-145.10;100.00
56334;BME280;42240;53.626;55.886;2023-02-22T07:10:22;75722.44;;;-145.10;100.00
56334;BME280;42240;53.626;55.886;2023-02-22T07:11:56;75716.50;;;-145.10;100.00
56334;BME280;42240;53.626;55.886;2023-02-22T07:13:29;75771.84;;;-145.10;100.00
56334;BME280;42240;53.626;55.886;2023-02-22T07:15:02;75736.28;;;-145.10;100.00
56334;BME280;42240;53.626;55.886;2023-02-22T07:16:35;75704.63;;;-145.10;100.00
56334;BME280;42240;53.626;55.886;2023-02-22T07:18:08;75657.19;;;-145.10;100.00
56334;BME280;42240;53.626;55.886;2023-02-22T07:19:41;75605.78;;;-145.10;100.00
56334;BME280;42240;53.626;55.886;2023-02-22T07:21:14;75617.66;;;-145.10;100.00
56334;BME280;42240;53.626;55.886;2023-02-22T07:22:48;75623.59;;;-145.10;100.00
56334;BME280;42240;53.626;55.886;2023-02-22T07:24:22;75574.16;;;-145.10;100.00
56334;BME280;42240;53.626;55.886;2023-02-22T07:25:55;75584.06;;;-145.10;100.00
56334;BME280;42240;53.626;55.886;2023-02-22T07:27:31;75591.97;;;-145.10;98.74
56334;BME280;42240;53.626;55.886;2023-02-22T07:29:04;75536.59;;;-145.10;97.47
56334;BME280;42240;53.626;55.886;2023-02-22T07:30:36;75459.50;;;-145.10;96.19
56334;BME280;42240;53.626;55.886;2023-02-22T07:32:10;75457.53;;;-145.10;94.96
56334;BME280;42240;53.626;55.886;2023-02-22T07:33:45;75497.06;;;-145.10;92.11
56334;BME280;42240;53.626;55.886;2023-02-22T07:35:26;75487.19;;;-145.10;93.29
56334;BME280;42240;53.626;55.886;2023-02-22T07:37:00;75516.84;;;-145.10;91.94
56334;BME280;42240;53.626;55.886;2023-02-22T07:38:33;75469.38;;;-145.10;92.24
56334;BME280;42240;53.626;55.886;2023-02-22T07:40:05;75431.84;;;-145.10;90.22
56334;BME280;42240;53.626;55.886;2023-02-22T07:41:38;75465.44;;;-145.10;87.42
56334;BME280;42240;53.626;55.886;2023-02-22T07:43:28;75499.03;;;-145.10;88.65
56334;BME280;42240;53.626;55.886;2023-02-22T07:45:03;75425.91;;;-145.10;88.82
56334;BME280;42240;53.626;55.886;2023-02-22T07:46:36;75368.56;;;-145.10;85.64
56334;BME280;42240;53.626;55.886;2023-02-22T07:48:09;75378.47;;;-145.10;82.14
56334;BME280;42240;53.626;55.886;2023-02-22T07:49:44;75378.47;;;-145.10;81.87
56334;BME280;42240;53.626;55.886;2023-02-22T07:51:17;75423.94;;;-145.10;80.16
56334;BME280;42240;53.626;55.886;2023-02-22T07:52:54;75419.97;;;-145.10;81.95
56334;BME280;42240;53.626;55.886;2023-02-22T07:54:27;75338.91;;;-145.10;81.06
56334;BME280;42240;53.626;55.886;2023-02-22T07:56:01;75455.56;;;-145.10;80.03
56334;BME280;42240;53.626;55.886;2023-02-22T07:57:35;75329.03;;;-145.10;77.24
56334;BME280;42240;53.626;55.886;2023-02-22T07:59:07;75378.47;;;-145.10;73.75
56334;BME280;42240;53.626;55.886;2023-02-22T08:00:41;75370.53;;;-145.10;73.80
56334;BME280;42240;53.626;55.886;2023-02-22T08:02:16;75419.97;;;-145.10;75.58
56334;BME280;42240;53.626;55.886;2023-02-22T08:03:49;75334.97;;;-145.10;72.41
56334;BME280;42240;53.626;55.886;2023-02-22T08:05:25;75333.00;;;-145.10;71.58
56334;BME280;42240;53.626;55.886;2023-02-22T08:06:58;75323.09;;;-145.10;70.89
56334;BME280;42240;53.626;55.886;2023-02-22T08:08:31;75362.63;;;-145.10;70.01
56334;BME280;42240;53.626;55.886;2023-02-22T08:10:05;75386.38;;;-145.10;70.01
56334;BME280;42240;53.626;55.886;2023-02-22T08:11:39;75378.47;;;-145.10;74.09
56334;BME280;42240;53.626;55.886;2023-02-22T08:13:13;75390.31;;;-145.10;73.89
56334;BME280;42240;53.626;55.886;2023-02-22T08:14:46;75352.75;;;-145.10;74.75
56334;BME280;42240;53.626;55.886;2023-02-22T08:16:19;75398.22;;;-145.10;74.94
56334;BME280;42240;53.626;55.886;2023-02-22T08:17:52;75388.34;;;-145.10;76.54
56334;BME280;42240;53.626;55.886;2023-02-22T08:19:25;75410.09;;;-145.10;77.46
56334;BME280;42240;53.626;55.886;2023-02-22T08:20:57;75437.75;;;-145.10;79.39
56334;BME280;42240;53.626;55.886;2023-02-22T08:22:31;75425.91;;;-145.10;80.88
56334;BME280;42240;53.626;55.886;2023-02-22T08:24:04;75382.41;;;-145.10;80.89
56334;BME280;42240;53.626;55.886;2023-02-22T08:25:37;75412.06;;;-145.10;78.82
56334;BME280;42240;53.626;55.886;2023-02-22T08:27:10;75414.03;;;-145.10;78.13
56334;BME280;42240;53.626;55.886;2023-02-22T08:28:43;75344.84;;;-145.10;78.16